Station: Yulara

  Atmospheric Gas Attenuation - ITU Rec 676-11   --------------- db/100km ---------------
Date Time Temp RH % AH g/m3 Dew Point Wind Direction Speed kph Gust kph Barometer mB Rainfall Since 9am 24GHz 47GHz 76GHz 122GHz 134GHz 241GHz
11 21:30 20.2 37 6.47 5.1 19 24 1017.7 0 14.8 21.2 29.4 76.6 66.1 226.1
11 21:20 20.4 36 6.37 4.8 19 20 1017.6 0 14.6 21.0 29.0 75.5 64.9 221.7
11 21:10 20.6 36 6.44 5 17 20 1017.5 0 14.7 21.1 29.1 76.0 65.5 223.8
11 21:00 20.8 35 6.34 4.8 20 26 1017.3 0 14.5 20.9 28.7 74.9 64.2 219.4
11 20:50 20.9 35 6.37 4.9 19 22 1017.3 0 14.6 20.9 28.8 75.1 64.4 220.3
11 20:40 21.1 34 6.26 4.6 17 19 1017.3 0 14.3 20.7 28.4 73.9 63.1 215.5
11 20:30 21.3 34 6.34 4.8 19 24 1017 0 14.5 20.8 28.5 74.4 63.8 218.0
11 20:20 21.4 33 6.19 4.5 20 22 1017 0 14.2 20.5 28.0 73.0 62.1 211.9
11 20:10 21.7 33 6.29 4.7 17 20 1017 0 14.4 20.6 28.2 73.6 62.9 215.0
11 20:00 21.9 32 6.17 4.5 19 22 1017 0 14.1 20.4 27.8 72.4 61.5 209.9
11 19:50 22.1 32 6.25 4.6 17 20 1016.8 0 14.3 20.5 28.0 72.9 62.2 212.4
11 19:40 22.2 32 6.28 4.7 17 20 1016.8 0 14.3 20.5 28.0 73.1 62.4 213.3
11 19:30 22.4 31 6.16 4.5 17 22 1016.8 0 14.1 20.3 27.6 71.8 61.0 208.2
11 19:20 22.6 31 6.23 4.6 19 22 1016.6 0 14.2 20.3 27.7 72.3 61.6 210.3
11 19:10 22.8 30 6.1 4.3 20 26 1016.5 0 13.9 20.1 27.2 70.9 60.0 204.9
11 19:00 23 30 6.17 4.5 20 30 1016.3 0 14.1 20.1 27.4 71.4 60.6 207.0
11 18:50 23.3 30 6.27 4.8 20 22 1016.3 0 14.3 20.2 27.6 72.0 61.5 210.0
11 18:40 23.6 29 6.17 4.5 28 33 1016.3 0 14.1 20.0 27.2 70.9 60.2 205.5
11 18:30 23.8 29 6.24 4.7 24 32 1016.1 0 14.2 20.1 27.3 71.3 60.7 207.6
11 18:20 24.2 28 6.16 4.6 26 30 1016.1 0 14.0 19.9 27.0 70.2 59.6 203.6
11 18:10 24.3 28 6.2 4.6 26 30 1016.1 0 14.1 19.9 27.1 70.5 60.0 204.9
11 18:00 24.6 28 6.3 4.9 24 30 1016 0 14.3 20.0 27.3 71.1 60.8 207.8
11 17:50 24.7 27 6.11 4.5 22 28 1016 0 13.9 19.7 26.6 69.4 58.7 200.6
11 17:40 25 27 6.22 4.7 22 30 1016 0 14.1 19.8 26.9 70.1 59.7 203.9
11 17:30 25.3 26 6.09 4.4 26 32 1015.9 0 13.8 19.5 26.4 68.7 58.1 198.4
11 17:20 25.1 26 6.02 4.3 24 28 1016 0 13.7 19.5 26.2 68.3 57.5 196.3
11 17:10 25.1 26 6.02 4.3 28 33 1015.9 0 13.7 19.5 26.2 68.3 57.5 196.3
11 17:00 25.4 25 5.89 4 26 35 1015.7 0 13.4 19.3 25.7 67.0 55.9 190.9
11 16:50 25.4 25 5.89 4 24 28 1015.6 0 13.4 19.3 25.7 67.0 55.9 190.9
11 16:40 25.2 25 5.82 3.8 26 32 1015.5 0 13.3 19.2 25.6 66.5 55.4 188.8
11 16:30 25.2 25 5.82 3.8 26 35 1015.5 0 13.3 19.2 25.6 66.5 55.4 188.8
11 16:20 25.4 26 6.12 4.5 28 32 1015.6 0 13.9 19.6 26.4 68.9 58.3 199.2
11 16:10 25.1 25 5.79 3.7 22 33 1015.6 0 13.2 19.2 25.5 66.4 55.1 187.9
11 16:00 25.2 24 5.59 3.2 24 35 1015.5 0 12.8 18.9 24.8 64.6 53.0 180.5
11 15:50 25.3 25 5.85 3.9 26 30 1015.8 0 13.3 19.2 25.6 66.7 55.6 189.7
11 15:40 25.6 25 5.95 4.1 28 33 1015.9 0 13.5 19.3 25.9 67.3 56.4 192.6
11 15:30 25.4 25 5.89 4 22 35 1015.9 0 13.4 19.3 25.7 67.0 56.0 190.9
11 15:20 25.1 25 5.79 3.7 35 41 1016 0 13.2 19.2 25.5 66.4 55.1 188.0
11 15:10 25 25 5.75 3.6 24 30 1016.1 0 13.1 19.2 25.4 66.1 54.8 186.8
11 15:00 25 25 5.75 3.6 28 43 1016.1 0 13.1 19.2 25.4 66.1 54.8 186.8
11 14:50 25.1 23 5.32 2.5 35 39 1016.2 0 12.3 18.6 24.1 62.5 50.4 171.2
11 14:40 25.2 24 5.59 3.2 22 30 1016.4 0 12.8 19.0 24.9 64.7 53.1 180.7
11 14:30 25 24 5.52 3 26 35 1016.4 0 12.7 18.9 24.7 64.3 52.5 178.6
11 14:20 25.5 26 6.16 4.6 26 32 1016.6 0 14.0 19.6 26.6 69.2 58.7 200.6
11 14:10 24.7 27 6.11 4.5 24 28 1016.8 0 13.9 19.7 26.7 69.5 58.8 200.7
11 14:00 24.4 28 6.23 4.7 30 44 1017 0 14.2 20.0 27.1 70.7 60.3 205.9
11 13:50 24.2 29 6.38 5.1 22 28 1017.3 0 14.5 20.2 27.7 72.2 62.0 212.0
11 13:40 24.4 29 6.45 5.2 28 33 1017.5 0 14.6 20.3 27.9 72.7 62.6 214.2
11 13:30 24.6 30 6.75 5.9 26 35 1017.5 0 15.2 20.6 28.8 75.1 65.6 224.9
11 13:20 24.9 29 6.64 5.7 28 32 1017.8 0 15.0 20.4 28.3 73.9 64.3 220.0
11 13:10 24.2 30 6.6 5.5 20 28 1017.9 0 14.9 20.5 28.4 74.2 64.4 220.4
11 13:00 23.9 33 7.14 6.7 28 41 1017.9 0 16.1 21.3 30.3 79.2 70.5 241.8
11 12:50 23.4 32 6.73 5.8 26 32 1018.3 0 15.2 20.9 29.1 76.1 66.4 227.6
11 12:40 23.2 32 6.65 5.6 26 32 1018.4 0 15.1 20.8 29.0 75.5 65.7 225.1
11 12:30 22.8 33 6.71 5.7 28 41 1018.6 0 15.2 21.0 29.3 76.5 66.7 228.5
11 12:20 23.1 33 6.82 6 30 33 1018.8 0 15.4 21.1 29.6 77.2 67.7 231.9
11 12:10 22.4 34 6.75 5.8 24 33 1019 0 15.3 21.1 29.6 77.2 67.5 231.2
11 12:00 22.2 35 6.87 6 30 41 1019 0 15.6 21.4 30.1 78.5 69.0 236.5
11 11:50 22.6 35 7.03 6.4 28 33 1019.2 0 15.9 21.5 30.5 79.6 70.5 241.6
11 11:40 22.1 35 6.83 5.9 26 33 1019.3 0 15.5 21.3 30.0 78.3 68.7 235.3
11 11:30 21.9 36 6.95 6.2 30 41 1019.4 0 15.7 21.5 30.5 79.5 70.2 240.6
11 11:20 21.6 37 7.02 6.3 32 37 1019.6 0 15.9 21.7 30.8 80.5 71.3 244.2
11 11:10 21.5 37 6.98 6.2 32 41 1019.7 0 15.8 21.7 30.7 80.2 70.9 243.0
11 11:00 22.1 36 7.03 6.3 32 39 1019.7 0 15.9 21.6 30.7 80.1 70.9 243.2
11 10:50 21.7 37 7.06 6.4 30 35 1019.9 0 16.0 21.8 30.9 80.8 71.6 245.6
11 10:40 21.3 39 7.27 6.8 26 37 1020 0 16.4 22.1 31.8 83.1 74.4 255.2
11 10:30 20.8 39 7.06 6.4 35 43 1019.9 0 16.0 22.0 31.3 81.7 72.4 248.3
11 10:20 20.5 40 7.12 6.4 35 44 1020.1 0 16.2 22.1 31.6 82.5 73.4 251.7
11 10:10 20.5 40 7.12 6.4 30 35 1020.2 0 16.2 22.1 31.6 82.5 73.4 251.7
11 10:00 20.4 41 7.25 6.7 33 43 1020.2 0 16.4 22.3 32.1 83.9 75.0 257.3
11 09:50 20 41 7.08 6.4 37 41 1020.3 0 16.1 22.2 31.7 82.7 73.4 251.6
11 09:40 19.5 42 7.05 6.3 32 37 1020.2 0 16.1 22.3 31.7 82.9 73.5 251.9
11 09:30 19.2 43 7.09 6.3 32 44 1020.2 0 16.1 22.4 32.0 83.6 74.3 254.5
11 09:20 19.2 44 7.25 6.7 35 41 1020.3 0 16.5 22.6 32.6 85.1 76.1 261.1
11 09:10 18.4 45 7.08 6.3 33 41 1020.3 0 16.2 22.6 32.3 84.3 74.9 256.6
11 09:00 18.3 46 7.19 6.5 32 43 1020.2 0 16.4 22.8 32.7 85.5 76.3 261.5
11 08:50 18.2 45 6.99 6.1 30 35 1020.2 0 16.0 22.5 32.0 83.7 74.0 253.5
11 08:40 17.7 46 6.94 5.9 30 33 1020.1 0 15.9 22.6 32.0 83.7 73.9 253.0
11 08:30 17.6 46 6.9 5.9 26 35 1020 0 15.8 22.5 31.9 83.4 73.5 251.6
11 08:20 17.5 46 6.86 5.8 22 26 1019.9 0 15.7 22.5 31.8 83.1 73.1 250.2
11 08:10 17.1 47 6.84 5.7 24 28 1019.9 0 15.7 22.5 31.9 83.3 73.2 250.7
11 08:00 16.8 48 6.86 5.7 22 32 1019.6 0 15.8 22.6 32.1 83.8 73.7 252.4
11 07:50 16.6 49 6.92 5.9 20 24 1019.6 0 15.9 22.8 32.4 84.6 74.6 255.5
11 07:40 16.2 49 6.76 5.5 22 26 1019.6 0 15.6 22.6 32.0 83.5 73.1 250.0
11 07:30 15.8 51 6.86 5.7 17 30 1019.4 0 15.8 22.9 32.5 84.8 74.7 255.5
11 07:20 15.7 51 6.82 5.6 13 17 1019.4 0 15.7 22.8 32.4 84.6 74.3 254.1
11 07:10 15.5 52 6.87 5.7 13 15 1019.3 0 15.8 23.0 32.6 85.2 75.0 256.8
11 07:00 15.5 52 6.87 5.7 17 20 1019.2 0 15.8 23.0 32.6 85.2 75.0 256.8
11 06:50 15.6 51 6.78 5.5 17 19 1019.1 0 15.6 22.8 32.3 84.2 73.9 252.6
11 06:40 15.7 51 6.82 5.6 17 19 1018.8 0 15.7 22.8 32.3 84.5 74.2 253.9
11 06:30 15.8 50 6.73 5.4 15 22 1018.7 0 15.5 22.7 32.0 83.5 73.0 249.8
11 06:20 15.9 50 6.77 5.5 17 22 1018.7 0 15.6 22.7 32.1 83.8 73.4 251.2
11 06:10 15.9 51 6.91 5.8 17 20 1018.7 0 15.9 22.9 32.6 85.2 75.1 257.1
11 06:00 16 50 6.81 5.6 17 22 1018.6 0 15.7 22.7 32.2 84.1 73.8 252.5
11 05:50 16.1 51 6.99 6 19 22 1018.5 0 16.1 23.0 32.8 85.7 75.9 259.8
11 05:40 16.2 50 6.89 5.8 19 26 1018.4 0 15.8 22.8 32.4 84.6 74.6 255.2
11 04:50 16.6 52 7.35 6.7 17 20 1017.8 0 16.8 23.4 33.9 88.6 79.7 273.3
11 04:40 16.6 52 7.35 6.7 17 20 1017.8 0 16.8 23.4 33.9 88.6 79.7 273.3
11 04:30 16.8 52 7.43 6.9 17 22 1017.6 0 17.0 23.4 34.1 89.2 80.5 276.0
11 04:20 16.8 52 7.43 6.9 17 24 1017.7 0 17.0 23.4 34.1 89.2 80.5 276.0

Last Refresh: 11-Apr-2021 21:43:12

Bureau of Meteorology